Portada
METAR-TAF:

METAR-TAF

Aeroports :

Salalah, Oman

latitud: 17-02N, longitud: 054-05E, altitud: 20 m

Observació

L'informe es va fer fa 38 minuts, a les 01:50 UTC
Vent 4 kt del Nord/Nord-Est
Temperatura 22°C
Humitat 78%
Pressió 1017 hPa
Visibilitat 10 km o més
Escasses núvols a una alçada de 3000 ft

METAR: OOSA 230150Z 03004KT 9999 FEW030 22/18 Q1017 NOSIG

Hora: 06:28 (02:28 UTC)

Pronòstic

L'informe es va fer fa 2 hores i 48 minuts, a les 23:40 UTC
Pronòstic vàlid del 23 a les 00 UTC al 24 a les 06 UTC
Vent 3 kt amb direcció variable
Visibilitat 10 km o més
Núvols disperses a una alçada de 3000 ft
Evolucionant progressivament
l' 23 a les 07 UTC al 23 a les 09 UTC
Vent 10 kt del Sud
Evolucionant progressivament
l' 23 a les 16 UTC al 23 a les 18 UTC
Vent 3 kt amb direcció variable

TAF: OOSA 222340Z 2300/2406 VRB03KT 9999 SCT030 BECMG 2307/2309 17010KT BECMG 2316/2318 VRB03KT

Observacions i pronòstics meteorològics de més de 4000 aeroports (METAR i TAF).

Les estacions disponibles són els punts grocs i vermells al mapa.

Posi el ratolí al punt desitjat per veure el nom de l'estació.

Feu clic per veure les observacions i els pronòstics meteorològics.

Per canviar el mapa: feu clic els botons verds amb una creu de color negre per apropar; al botó verd amb un guió per allunyar la imatge; o en les fletxes verdes per a mapes adjacents.


METAR-TAF: